Time;durP1;ratioP1;P1;durP2;ratioP2;P2;SDS_P1;SDS_P2;PMS_P1;PMS_P2;Temp;Humidity;BMP_temperature;BMP_pressure;BME280_temperature;BME280_humidity;BME280_pressure;Samples;Min_cycle;Max_cycle;Signal;HPM_P1;HPM_P2
2020/12/09 00:02:20;;;;;;;0.03;0.03;;;15.30;82.20;;;;;;4195833;28;20414;-39
2020/12/09 00:04:41;;;;;;;0.08;0.08;;;15.30;82.30;;;;;;4198074;28;20060;-40
2020/12/09 00:07:02;;;;;;;0.00;0.00;;;15.20;82.40;;;;;;4212193;28;20052;-40
2020/12/09 00:09:23;;;;;;;0.60;0.60;;;15.20;82.50;;;;;;4212599;28;20101;-40
2020/12/09 00:11:44;;;;;;;0.00;0.00;;;15.20;82.60;;;;;;4212439;28;20102;-40
2020/12/09 00:14:07;;;;;;;0.85;0.85;;;15.20;82.70;;;;;;4212228;28;20048;-40
2020/12/09 00:16:29;;;;;;;0.00;0.00;;;15.20;82.80;;;;;;4212320;28;20055;-40
2020/12/09 00:18:50;;;;;;;0.00;0.00;;;15.10;82.90;;;;;;4212458;28;20141;-39
2020/12/09 00:21:16;;;;;;;0.10;0.10;;;15.10;83.00;;;;;;4211862;28;20048;-40
2020/12/09 00:23:37;;;;;;;0.63;0.63;;;15.10;83.10;;;;;;4212673;28;20052;-40
2020/12/09 00:25:58;;;;;;;0.10;0.10;;;15.00;83.20;;;;;;4212838;28;20052;-40
2020/12/09 00:28:19;;;;;;;0.38;0.38;;;15.00;83.30;;;;;;4212090;28;20414;-40
2020/12/09 00:30:39;;;;;;;0.00;0.00;;;15.00;83.40;;;;;;4212257;28;20502;-40
2020/12/09 00:33:02;;;;;;;0.30;0.30;;;15.00;83.40;;;;;;4212283;28;20070;-40
2020/12/09 00:35:24;;;;;;;0.10;0.10;;;15.00;83.50;;;;;;4211889;28;20055;-40
2020/12/09 00:37:45;;;;;;;0.00;0.00;;;15.00;84.30;;;;;;4212183;28;20144;-40
2020/12/09 00:40:06;;;;;;;0.10;0.10;;;14.90;83.50;;;;;;4212318;28;20044;-40
2020/12/09 00:42:27;;;;;;;;;;;14.90;83.60;;;;;;4211915;28;20786;-40
2020/12/09 00:44:48;;;;;;;0.10;0.10;;;14.90;83.80;;;;;;4212495;28;20442;-40
2020/12/09 00:47:09;;;;;;;0.20;0.20;;;14.90;83.80;;;;;;4213161;28;20063;-40
2020/12/09 00:49:31;;;;;;;0.77;0.77;;;14.90;83.80;;;;;;4214432;28;20048;-39
2020/12/09 00:51:54;;;;;;;0.52;0.52;;;14.90;83.80;;;;;;4214563;28;20535;-39
2020/12/09 00:54:15;;;;;;;0.17;0.17;;;14.90;83.90;;;;;;4214345;28;20052;-39
2020/12/09 00:56:36;;;;;;;0.88;0.88;;;14.80;83.90;;;;;;4214282;28;20132;-39
2020/12/09 00:59:04;;;;;;;0.20;0.20;;;14.80;83.90;;;;;;4197801;28;20064;-38
2020/12/09 01:01:27;;;;;;;0.20;0.20;;;14.80;84.00;;;;;;4198015;28;20587;-39
2020/12/09 01:03:53;;;;;;;1.05;0.17;;;14.80;84.00;;;;;;4197822;28;20407;-39
2020/12/09 01:06:18;;;;;;;0.10;0.10;;;14.80;84.00;;;;;;4214594;28;20051;-39
2020/12/09 01:08:39;;;;;;;4.03;1.20;;;14.80;84.00;;;;;;4215252;28;20109;-38
2020/12/09 01:11:05;;;;;;;0.00;0.00;;;14.80;84.10;;;;;;4215198;28;20136;-39
2020/12/09 01:13:28;;;;;;;0.47;0.47;;;14.80;84.20;;;;;;4214910;28;20456;-40
2020/12/09 01:15:49;;;;;;;0.10;0.10;;;14.80;84.20;;;;;;4214972;28;20052;-40
2020/12/09 01:18:11;;;;;;;0.30;0.30;;;14.70;84.30;;;;;;4215586;28;20127;-41
2020/12/09 01:20:32;;;;;;;0.32;0.32;;;14.70;84.30;;;;;;4214530;28;20560;-40
2020/12/09 01:22:53;;;;;;;0.75;0.75;;;14.70;84.40;;;;;;4214721;28;20060;-40
2020/12/09 01:25:14;;;;;;;0.00;0.00;;;14.70;84.50;;;;;;4215313;28;20556;-39
2020/12/09 01:27:35;;;;;;;;;;;14.70;84.50;;;;;;4215596;28;20093;-40
2020/12/09 01:30:00;;;;;;;0.57;0.57;;;14.60;84.60;;;;;;4214577;28;20332;-40
2020/12/09 01:32:20;;;;;;;0.00;0.00;;;14.60;84.60;;;;;;4214841;28;20093;-40
2020/12/09 01:34:43;;;;;;;1.05;0.50;;;14.60;84.60;;;;;;4214758;28;20043;-39
2020/12/09 01:37:04;;;;;;;0.38;0.38;;;14.60;84.70;;;;;;4215260;28;20052;-40
2020/12/09 01:39:26;;;;;;;0.20;0.20;;;14.60;84.70;;;;;;4213637;28;20552;-40
2020/12/09 01:41:49;;;;;;;0.10;0.10;;;14.60;84.70;;;;;;4214333;28;20058;-40
2020/12/09 01:44:11;;;;;;;0.00;0.00;;;14.60;84.70;;;;;;4214966;28;20079;-39
2020/12/09 01:46:33;;;;;;;0.63;0.63;;;14.60;84.80;;;;;;4214638;28;20117;-39
2020/12/09 01:48:56;;;;;;;0.10;0.10;;;14.60;84.80;;;;;;4214921;28;20056;-40
2020/12/09 01:51:23;;;;;;;0.45;0.45;;;14.50;84.70;;;;;;4214335;28;20063;-39
2020/12/09 01:53:45;;;;;;;0.73;0.73;;;14.50;84.80;;;;;;4214452;28;20052;-40
2020/12/09 01:56:09;;;;;;;0.22;0.22;;;14.50;84.80;;;;;;4214748;28;20051;-39
2020/12/09 01:58:36;;;;;;;0.30;0.30;;;14.50;84.90;;;;;;4214007;28;20048;-40
2020/12/09 02:00:57;;;;;;;0.03;0.03;;;14.50;84.90;;;;;;4214442;28;20047;-40
2020/12/09 02:03:18;;;;;;;0.10;0.10;;;14.50;84.90;;;;;;4214108;28;20414;-40
2020/12/09 02:05:39;;;;;;;0.55;0.55;;;14.50;85.00;;;;;;4214227;28;20047;-39
2020/12/09 02:08:03;;;;;;;0.00;0.00;;;14.50;85.00;;;;;;4214536;28;20105;-39
2020/12/09 02:10:24;;;;;;;1.25;0.93;;;14.50;85.00;;;;;;4214243;28;20048;-40
2020/12/09 02:12:45;;;;;;;0.65;0.65;;;14.50;85.00;;;;;;4213915;28;20051;-39
2020/12/09 02:15:07;;;;;;;3.38;1.75;;;14.50;85.00;;;;;;4213760;28;20060;-39
2020/12/09 02:17:27;;;;;;;0.20;0.20;;;14.50;85.00;;;;;;4197400;28;20057;-40
2020/12/09 02:19:48;;;;;;;0.43;0.30;;;14.40;85.00;;;;;;4202533;28;20056;-40
2020/12/09 02:22:10;;;;;;;;;;;14.40;85.10;;;;;;4197722;28;20506;-39
2020/12/09 02:24:31;;;;;;;0.13;0.13;;;14.40;85.30;;;;;;4197329;28;19920;-39
2020/12/09 02:26:52;;;;;;;0.57;0.57;;;14.40;85.30;;;;;;4197355;28;20470;-39
2020/12/09 02:29:14;;;;;;;0.17;0.17;;;14.40;85.20;;;;;;4197350;28;20127;-38
2020/12/09 02:31:35;;;;;;;0.00;0.00;;;14.40;85.30;;;;;;4197232;28;20064;-39
2020/12/09 02:33:56;;;;;;;1.50;1.17;;;14.30;85.20;;;;;;4209159;28;20163;-39
2020/12/09 02:36:17;;;;;;;0.10;0.10;;;14.40;85.30;;;;;;4213519;28;20127;-39
2020/12/09 02:38:38;;;;;;;1.20;1.20;;;14.30;85.30;;;;;;4213735;28;20052;-40
2020/12/09 02:40:59;;;;;;;2.00;1.58;;;14.40;85.30;;;;;;4213784;28;20044;-39
2020/12/09 02:43:20;;;;;;;0.15;0.15;;;14.50;85.10;;;;;;4196796;28;20515;-39
2020/12/09 02:45:41;;;;;;;0.10;0.10;;;14.70;83.90;;;;;;4201018;28;20498;-39
2020/12/09 02:48:02;;;;;;;0.00;0.00;;;14.90;83.00;;;;;;4213757;28;20557;-39
2020/12/09 02:50:23;;;;;;;1.90;1.05;;;15.00;82.20;;;;;;4213131;28;20051;-39
2020/12/09 02:52:44;;;;;;;0.28;0.20;;;15.10;81.70;;;;;;4213643;28;20094;-39
2020/12/09 02:55:06;;;;;;;0.20;0.20;;;15.20;81.40;;;;;;4213491;28;20495;-39
2020/12/09 02:57:27;;;;;;;1.20;0.55;;;15.20;81.10;;;;;;4196687;28;20056;-39
2020/12/09 02:59:47;;;;;;;0.30;0.30;;;15.20;81.10;;;;;;4208652;28;20097;-39
2020/12/09 03:02:11;;;;;;;0.10;0.10;;;15.20;81.00;;;;;;4213821;28;20403;-40
2020/12/09 03:04:32;;;;;;;0.40;0.40;;;15.20;81.00;;;;;;4213723;28;20090;-39
2020/12/09 03:06:56;;;;;;;1.38;0.90;;;15.10;80.90;;;;;;4213966;28;20056;-39
2020/12/09 03:09:17;;;;;;;0.65;0.65;;;15.10;81.90;;;;;;4213664;28;20502;-39
2020/12/09 03:11:39;;;;;;;0.20;0.20;;;15.10;81.20;;;;;;4213323;28;20067;-43
2020/12/09 03:14:00;;;;;;;0.75;0.75;;;15.00;81.20;;;;;;4213101;28;20048;-40
2020/12/09 03:16:21;;;;;;;0.32;0.32;;;15.00;81.30;;;;;;4196588;28;20049;-40
2020/12/09 03:18:42;;;;;;;;;;;15.00;81.50;;;;;;4200359;28;20051;-39
2020/12/09 03:21:06;;;;;;;0.10;0.10;;;15.00;81.60;;;;;;4212035;28;20455;-40
2020/12/09 03:23:28;;;;;;;0.00;0.00;;;14.90;81.70;;;;;;4212920;28;20092;-39
2020/12/09 03:25:48;;;;;;;0.90;0.90;;;14.90;81.80;;;;;;4213469;28;20056;-40
2020/12/09 03:28:12;;;;;;;1.13;0.85;;;14.90;81.90;;;;;;4212781;28;20131;-40
2020/12/09 03:30:33;;;;;;;0.00;0.00;;;14.80;82.10;;;;;;4213264;28;20060;-40
2020/12/09 03:32:54;;;;;;;0.90;0.90;;;14.90;82.20;;;;;;4213378;28;20066;-39
2020/12/09 03:35:15;;;;;;;2.43;2.23;;;15.10;81.40;;;;;;4212643;28;20052;-39
2020/12/09 03:37:35;;;;;;;0.15;0.15;;;15.20;80.80;;;;;;4212852;28;20067;-39
2020/12/09 03:39:58;;;;;;;1.23;1.20;;;15.30;80.40;;;;;;4213102;28;20040;-40
2020/12/09 03:42:18;;;;;;;0.52;0.52;;;15.30;79.90;;;;;;4213242;28;20047;-39
2020/12/09 03:44:40;;;;;;;0.77;0.77;;;15.40;79.80;;;;;;4212551;28;20071;-40
2020/12/09 03:47:05;;;;;;;1.02;1.00;;;15.30;79.70;;;;;;4212770;28;20054;-39
2020/12/09 03:49:26;;;;;;;1.10;1.10;;;15.30;79.90;;;;;;4212573;28;20043;-39
2020/12/09 03:51:47;;;;;;;0.82;0.82;;;15.20;79.90;;;;;;4213124;28;20052;-39
2020/12/09 03:54:09;;;;;;;0.63;0.63;;;15.20;80.10;;;;;;4213136;28;20502;-40
2020/12/09 03:56:30;;;;;;;0.28;0.28;;;15.20;80.30;;;;;;4212265;28;20449;-39
2020/12/09 03:58:51;;;;;;;;;;;15.20;80.40;;;;;;4213003;28;20782;-39
2020/12/09 04:01:14;;;;;;;0.70;0.70;;;15.10;80.50;;;;;;4212581;28;20552;-39
2020/12/09 04:03:35;;;;;;;0.55;0.47;;;15.10;80.60;;;;;;4212305;28;20452;-39
2020/12/09 04:05:56;;;;;;;0.30;0.30;;;15.00;80.70;;;;;;4211134;28;20052;-39
2020/12/09 04:08:19;;;;;;;1.75;1.73;;;15.00;80.80;;;;;;4212242;28;20135;-39
2020/12/09 04:10:39;;;;;;;0.63;0.63;;;15.00;81.00;;;;;;4212457;28;20134;-39
2020/12/09 04:13:00;;;;;;;1.33;1.25;;;15.10;81.00;;;;;;4212124;28;20383;-39
2020/12/09 04:15:21;;;;;;;0.93;0.88;;;15.20;80.10;;;;;;4212297;28;20472;-39
2020/12/09 04:17:42;;;;;;;0.00;0.00;;;15.40;79.40;;;;;;4213091;28;20048;-40
2020/12/09 04:20:03;;;;;;;0.00;0.00;;;15.40;79.10;;;;;;4212648;28;20309;-40
2020/12/09 04:22:24;;;;;;;0.22;0.22;;;15.50;78.70;;;;;;4211965;28;20099;-40
2020/12/09 04:24:47;;;;;;;0.70;0.47;;;15.60;78.40;;;;;;4212556;28;20076;-39
2020/12/09 04:27:08;;;;;;;4.47;1.45;;;15.60;78.00;;;;;;4212510;28;20050;-39
2020/12/09 04:29:29;;;;;;;0.45;0.45;;;15.60;77.80;;;;;;4211567;28;20044;-39
2020/12/09 04:31:50;;;;;;;1.45;1.35;;;15.60;77.70;;;;;;4212042;28;20127;-39
2020/12/09 04:34:12;;;;;;;0.52;0.52;;;15.60;77.80;;;;;;4212057;28;20063;-39
2020/12/09 04:36:33;;;;;;;0.70;0.70;;;15.60;78.00;;;;;;4212093;28;20510;-39
2020/12/09 04:38:55;;;;;;;1.02;1.02;;;15.50;78.10;;;;;;4211434;28;20675;-39
2020/12/09 04:41:18;;;;;;;;;;;15.50;78.10;;;;;;4212536;28;20080;-39
2020/12/09 04:43:39;;;;;;;3.65;1.15;;;15.60;78.10;;;;;;4211892;28;19923;-40
2020/12/09 04:46:01;;;;;;;0.00;0.00;;;15.50;78.00;;;;;;4212132;28;20082;-39
2020/12/09 04:48:28;;;;;;;1.13;1.13;;;15.50;78.10;;;;;;4212498;28;20072;-40
2020/12/09 04:51:06;;;;;;;0.00;0.00;;;15.50;78.30;;;;;;4211881;28;20140;-39
2020/12/09 04:53:29;;;;;;;0.10;0.10;;;15.40;78.60;;;;;;4211980;28;20044;-39
2020/12/09 04:55:52;;;;;;;0.75;0.30;;;15.40;78.80;;;;;;4212201;28;20048;-39
2020/12/09 04:58:15;;;;;;;0.63;0.63;;;15.40;79.00;;;;;;4212373;28;20537;-39
2020/12/09 05:00:40;;;;;;;1.40;1.40;;;15.50;78.50;;;;;;4211588;28;20048;-40
2020/12/09 05:03:14;;;;;;;8.05;1.60;;;15.60;77.70;;;;;;4212024;28;20056;-41
2020/12/09 05:05:35;;;;;;;0.08;0.08;;;15.70;77.30;;;;;;4212126;28;20048;-40
2020/12/09 05:08:00;;;;;;;0.05;0.05;;;15.80;77.10;;;;;;4211995;28;20056;-41
2020/12/09 05:10:22;;;;;;;0.85;0.85;;;15.80;76.90;;;;;;4212101;28;20048;-40
2020/12/09 05:12:47;;;;;;;1.25;1.13;;;15.80;76.80;;;;;;4212400;28;20426;-40
2020/12/09 05:15:15;;;;;;;0.15;0.15;;;15.80;76.50;;;;;;4211896;28;20056;-39
2020/12/09 05:17:50;;;;;;;0.00;0.00;;;15.80;76.30;;;;;;4211891;28;20048;-40
2020/12/09 05:20:10;;;;;;;0.73;0.57;;;15.80;76.30;;;;;;4211508;28;20101;-40
2020/12/09 05:22:37;;;;;;;1.15;1.08;;;15.80;76.30;;;;;;4211780;28;20518;-39
2020/12/09 05:25:01;;;;;;;0.00;0.00;;;15.80;76.50;;;;;;4211748;28;20059;-39
2020/12/09 05:27:22;;;;;;;0.40;0.40;;;15.70;76.70;;;;;;4211785;28;20048;-39
2020/12/09 05:29:47;;;;;;;0.00;0.00;;;15.70;76.80;;;;;;4211240;28;20475;-39
2020/12/09 05:32:11;;;;;;;0.55;0.38;;;15.80;76.60;;;;;;4211593;28;20055;-42
2020/12/09 05:34:33;;;;;;;0.90;0.70;;;15.80;76.50;;;;;;4212894;28;20092;-42
2020/12/09 05:36:55;;;;;;;0.25;0.25;;;15.80;76.50;;;;;;4214961;28;20056;-41
2020/12/09 05:39:16;;;;;;;0.57;0.57;;;15.80;76.30;;;;;;4214847;28;20130;-40
2020/12/09 05:41:39;;;;;;;1.20;1.20;;;15.80;76.20;;;;;;4215037;28;20048;-42
2020/12/09 05:44:04;;;;;;;0.40;0.40;;;15.80;76.30;;;;;;4215226;28;20112;-39
2020/12/09 05:46:25;;;;;;;0.25;0.25;;;15.90;76.10;;;;;;4215290;28;20063;-41
2020/12/09 05:48:45;;;;;;;0.65;0.65;;;16.00;75.30;;;;;;4214558;28;20122;-40
2020/12/09 05:51:06;;;;;;;0.88;0.88;;;16.10;74.90;;;;;;4214762;28;20048;-44
2020/12/09 05:53:32;;;;;;;0.35;0.35;;;16.10;74.60;;;;;;4215096;28;20063;-42
2020/12/09 05:56:10;;;;;;;0.60;0.60;;;16.10;74.40;;;;;;4214991;28;20055;-43
2020/12/09 05:58:32;;;;;;;0.10;0.10;;;16.20;74.40;;;;;;4214767;28;20097;-42
2020/12/09 06:01:10;;;;;;;0.43;0.43;;;16.10;74.50;;;;;;4198116;28;20070;-42
2020/12/09 06:03:31;;;;;;;2.50;1.65;;;16.00;74.70;;;;;;4196468;28;20095;-41
2020/12/09 06:06:11;;;;;;;1.55;1.45;;;16.00;75.00;;;;;;4197861;28;20053;-42
2020/12/09 06:08:37;;;;;;;2.63;0.88;;;15.90;76.50;;;;;;4198009;28;20052;-40
2020/12/09 06:11:01;;;;;;;0.00;0.00;;;15.90;77.20;;;;;;4201160;28;20514;-40
2020/12/09 06:13:26;;;;;;;0.65;0.65;;;15.90;77.60;;;;;;4214205;28;20109;-40
2020/12/09 06:15:48;;;;;;;1.75;1.65;;;15.70;77.80;;;;;;4213946;28;20056;-40
2020/12/09 06:18:11;;;;;;;0.85;0.85;;;15.70;78.30;;;;;;4214829;28;20127;-40
2020/12/09 06:20:33;;;;;;;0.50;0.50;;;15.60;78.70;;;;;;4213965;28;20052;-39
2020/12/09 06:23:00;;;;;;;2.65;1.48;;;15.50;79.10;;;;;;4213787;28;20048;-39
2020/12/09 06:25:22;;;;;;;0.43;0.43;;;15.70;79.00;;;;;;4213860;28;20051;-39
2020/12/09 06:27:43;;;;;;;0.47;0.47;;;15.80;78.70;;;;;;4213538;28;20438;-40
2020/12/09 06:30:06;;;;;;;1.95;1.85;;;15.90;78.40;;;;;;4214285;28;20557;-39
2020/12/09 06:32:44;;;;;;;0.25;0.25;;;15.80;78.20;;;;;;4213734;28;20044;-39
2020/12/09 06:35:06;;;;;;;0.75;0.75;;;15.90;78.10;;;;;;4213600;28;20128;-40
2020/12/09 06:37:27;;;;;;;0.40;0.40;;;15.90;77.80;;;;;;4212421;28;20040;-40
2020/12/09 06:40:07;;;;;;;0.55;0.55;;;15.90;77.70;;;;;;4213576;28;20056;-39
2020/12/09 06:42:28;;;;;;;1.17;1.17;;;15.90;77.80;;;;;;4213029;28;20086;-39
2020/12/09 06:44:51;;;;;;;0.52;0.52;;;15.80;77.80;;;;;;4212654;28;20075;-40
2020/12/09 06:47:12;;;;;;;2.42;2.22;;;15.80;78.00;;;;;;4212595;28;20052;-40
2020/12/09 06:49:42;;;;;;;0.55;0.55;;;15.80;78.30;;;;;;4196864;28;20076;-40
2020/12/09 06:52:26;;;;;;;0.10;0.10;;;15.80;78.40;;;;;;4197019;28;20049;-40
2020/12/09 06:54:51;;;;;;;0.10;0.10;;;15.80;78.70;;;;;;4196853;28;20055;-40
2020/12/09 06:57:13;;;;;;;0.43;0.30;;;15.80;78.70;;;;;;4196947;28;20499;-39
2020/12/09 06:59:34;;;;;;;0.82;0.82;;;15.80;78.80;;;;;;4196634;28;20048;-39
2020/12/09 07:01:58;;;;;;;;;;;15.90;78.60;;;;;;4196998;28;20629;-39
2020/12/09 07:04:21;;;;;;;2.20;1.23;;;16.00;78.20;;;;;;4196935;28;20371;-39
2020/12/09 07:06:43;;;;;;;0.28;0.28;;;16.10;78.50;;;;;;4196904;28;20049;-39
2020/12/09 07:09:07;;;;;;;0.13;0.13;;;16.10;77.30;;;;;;4213416;28;20052;-39
2020/12/09 07:11:28;;;;;;;2.63;1.55;;;16.10;77.20;;;;;;4213649;28;20102;-39
2020/12/09 07:13:48;;;;;;;0.43;0.43;;;16.00;77.30;;;;;;4213720;28;20117;-39
2020/12/09 07:16:09;;;;;;;2.10;1.85;;;16.00;77.40;;;;;;4213305;28;20064;-39
2020/12/09 07:18:30;;;;;;;3.08;1.15;;;16.00;77.40;;;;;;4213371;28;20505;-39
2020/12/09 07:20:51;;;;;;;0.70;0.70;;;15.90;77.50;;;;;;4213470;28;20047;-39
2020/12/09 07:23:13;;;;;;;0.40;0.40;;;15.80;77.80;;;;;;4213295;28;20163;-40
2020/12/09 07:25:40;;;;;;;0.10;0.10;;;15.80;78.10;;;;;;4213331;28;20485;-40
2020/12/09 07:28:02;;;;;;;0.32;0.32;;;15.80;78.00;;;;;;4212911;28;20059;-40
2020/12/09 07:30:24;;;;;;;1.33;1.25;;;16.00;77.40;;;;;;4213189;28;20075;-39
2020/12/09 07:32:48;;;;;;;0.22;0.22;;;16.10;76.40;;;;;;4213250;28;20769;-39
2020/12/09 07:35:11;;;;;;;0.80;0.20;;;16.20;75.90;;;;;;4212043;28;20052;-40
2020/12/09 07:37:36;;;;;;;0.70;0.70;;;16.20;75.60;;;;;;4213332;28;20129;-40
2020/12/09 07:40:01;;;;;;;0.95;0.95;;;16.20;76.40;;;;;;4213104;28;20048;-40
2020/12/09 07:42:23;;;;;;;1.00;1.00;;;16.20;75.60;;;;;;4213043;28;20540;-41
2020/12/09 07:44:45;;;;;;;1.38;0.98;;;16.10;75.40;;;;;;4213118;28;20067;-40
2020/12/09 07:47:06;;;;;;;0.77;0.77;;;16.10;75.50;;;;;;4212971;28;20059;-40
2020/12/09 07:49:27;;;;;;;0.15;0.15;;;16.00;75.70;;;;;;4213063;28;20406;-39
2020/12/09 07:51:48;;;;;;;0.00;0.00;;;16.00;76.00;;;;;;4212724;28;20056;-40
2020/12/09 07:54:10;;;;;;;0.95;0.90;;;15.90;76.20;;;;;;4212567;28;20052;-39
2020/12/09 07:56:32;;;;;;;;;;;15.80;76.50;;;;;;4212655;28;20491;-40
2020/12/09 07:58:55;;;;;;;0.85;0.85;;;15.70;76.80;;;;;;4212682;28;19923;-40
2020/12/09 08:01:26;;;;;;;0.32;0.32;;;15.70;77.30;;;;;;4212287;28;20429;-38
2020/12/09 08:03:50;;;;;;;1.17;1.17;;;15.70;77.20;;;;;;4195939;28;20056;-39
2020/12/09 08:06:22;;;;;;;0.98;0.95;;;15.80;76.90;;;;;;4201258;28;20051;-40
2020/12/09 08:08:44;;;;;;;0.68;0.68;;;15.90;76.30;;;;;;4212507;28;20055;-39
2020/12/09 08:11:07;;;;;;;1.00;1.00;;;16.00;75.90;;;;;;4212390;28;20048;-41
2020/12/09 08:13:29;;;;;;;1.85;1.48;;;16.00;75.90;;;;;;4212568;28;20048;-41
2020/12/09 08:16:00;;;;;;;0.73;0.73;;;16.10;75.50;;;;;;4212307;28;20136;-41
2020/12/09 08:18:21;;;;;;;0.32;0.32;;;16.10;75.10;;;;;;4212520;28;20048;-41
2020/12/09 08:20:46;;;;;;;0.38;0.38;;;16.10;74.80;;;;;;4212269;28;20143;-39
2020/12/09 08:23:08;;;;;;;1.05;0.98;;;16.10;74.80;;;;;;4212370;28;20052;-41
2020/12/09 08:25:30;;;;;;;1.15;1.15;;;16.10;75.10;;;;;;4212262;28;20052;-40
2020/12/09 08:27:52;;;;;;;3.58;3.28;;;16.00;75.40;;;;;;4212302;28;20048;-41
2020/12/09 08:30:17;;;;;;;1.10;1.10;;;15.90;75.70;;;;;;4212440;28;20052;-38
2020/12/09 08:33:15;;;;;;;1.15;1.13;;;15.90;75.70;;;;;;4212021;28;20052;-42
2020/12/09 08:35:44;;;;;;;0.20;0.20;;;16.00;75.50;;;;;;4212297;28;20054;-41
2020/12/09 08:38:06;;;;;;;0.63;0.63;;;16.00;75.40;;;;;;4212345;28;20059;-41
2020/12/09 08:40:27;;;;;;;1.27;1.15;;;15.90;75.40;;;;;;4212090;28;20052;-41
2020/12/09 08:42:54;;;;;;;0.05;0.05;;;15.90;75.60;;;;;;4212149;28;20483;-41
2020/12/09 08:45:16;;;;;;;0.63;0.63;;;15.80;75.80;;;;;;4212305;28;20056;-41
2020/12/09 08:47:37;;;;;;;0.65;0.65;;;15.80;76.10;;;;;;4212302;28;20131;-42
2020/12/09 08:49:58;;;;;;;;;;;15.70;76.50;;;;;;4212710;28;20062;-41
2020/12/09 08:52:19;;;;;;;1.20;1.20;;;15.60;76.80;;;;;;4212370;28;19989;-41
2020/12/09 08:54:40;;;;;;;3.45;1.58;;;15.60;76.90;;;;;;4211832;28;20466;-41
2020/12/09 08:57:01;;;;;;;1.20;1.20;;;15.60;77.40;;;;;;4212259;28;20062;-41
2020/12/09 08:59:22;;;;;;;1.08;0.95;;;15.60;77.00;;;;;;4212157;28;20498;-40
2020/12/09 09:01:44;;;;;;;5.97;3.00;;;15.60;77.10;;;;;;4211905;28;20044;-39
2020/12/09 09:04:06;;;;;;;1.90;1.90;;;15.50;77.10;;;;;;4211932;28;20056;-39
2020/12/09 09:06:28;;;;;;;1.75;1.65;;;15.60;77.20;;;;;;4211236;28;20044;-39
2020/12/09 09:08:48;;;;;;;1.45;1.45;;;15.70;76.20;;;;;;4211028;28;20087;-39
2020/12/09 09:11:09;;;;;;;1.48;1.48;;;15.90;75.50;;;;;;4199189;28;20052;-39
2020/12/09 09:13:30;;;;;;;0.50;0.50;;;16.00;75.10;;;;;;4214714;28;20048;-39
2020/12/09 09:15:53;;;;;;;1.38;1.25;;;16.00;74.90;;;;;;4214721;28;20143;-40
2020/12/09 09:18:15;;;;;;;1.55;1.55;;;16.00;74.80;;;;;;4214814;28;20056;-39
2020/12/09 09:20:36;;;;;;;0.65;0.65;;;16.00;74.70;;;;;;4215386;28;20093;-39
2020/12/09 09:22:57;;;;;;;;;;;15.90;74.60;;;;;;4215457;28;20056;-39
2020/12/09 09:25:18;;;;;;;0.75;0.75;;;15.90;74.60;;;;;;4214316;28;19927;-40
2020/12/09 09:27:39;;;;;;;1.92;1.25;;;15.80;74.80;;;;;;4214945;28;20417;-39
2020/12/09 09:30:00;;;;;;;0.20;0.20;;;15.80;75.10;;;;;;4213961;28;20117;-39
2020/12/09 09:32:22;;;;;;;1.23;1.17;;;15.70;75.20;;;;;;4212402;28;20056;-40
2020/12/09 09:34:44;;;;;;;0.40;0.40;;;15.60;75.60;;;;;;4202109;28;20415;-41
2020/12/09 09:37:08;;;;;;;0.28;0.28;;;15.60;76.00;;;;;;4214331;28;20052;-38
2020/12/09 09:39:32;;;;;;;0.17;0.17;;;15.60;76.00;;;;;;4214479;28;20044;-39
2020/12/09 09:41:56;;;;;;;1.58;1.55;;;15.70;75.50;;;;;;4214349;28;20509;-39
2020/12/09 09:44:17;;;;;;;0.60;0.60;;;15.80;75.20;;;;;;4215027;28;20113;-38
2020/12/09 09:46:38;;;;;;;4.32;1.95;;;15.80;74.90;;;;;;4214959;28;20052;-39
2020/12/09 09:48:59;;;;;;;1.15;1.15;;;15.80;75.00;;;;;;4214299;28;20132;-39
2020/12/09 09:51:21;;;;;;;6.57;1.10;;;15.80;75.10;;;;;;4213082;28;20058;-40
2020/12/09 09:53:42;;;;;;;2.60;1.05;;;15.70;75.30;;;;;;4214323;28;20052;-39
2020/12/09 09:56:05;;;;;;;;;;;15.80;75.30;;;;;;4214901;28;20056;-40
2020/12/09 09:58:26;;;;;;;0.70;0.70;;;15.90;75.00;;;;;;4215103;28;19978;-39
2020/12/09 10:00:47;;;;;;;0.45;0.45;;;16.00;74.40;;;;;;4214323;28;20128;-40
2020/12/09 10:03:08;;;;;;;0.32;0.30;;;16.00;74.20;;;;;;4215106;28;20074;-39
2020/12/09 10:05:28;;;;;;;1.55;1.55;;;15.90;74.30;;;;;;4214415;28;20499;-39
2020/12/09 10:07:50;;;;;;;0.77;0.77;;;15.80;74.50;;;;;;4203559;28;20584;-39
2020/12/09 10:10:13;;;;;;;9.90;1.25;;;15.80;74.90;;;;;;4214401;28;20055;-41
2020/12/09 10:12:34;;;;;;;0.20;0.20;;;15.70;75.20;;;;;;4214770;28;20460;-38
2020/12/09 10:14:54;;;;;;;8.38;1.73;;;15.60;75.60;;;;;;4214219;28;20117;-39
2020/12/09 10:17:15;;;;;;;6.22;5.05;;;15.60;75.70;;;;;;4214242;28;20055;-39
2020/12/09 10:19:36;;;;;;;0.63;0.63;;;15.70;71.30;;;;;;4196852;28;20102;-40
2020/12/09 10:22:00;;;;;;;0.70;0.70;;;15.60;68.70;;;;;;4209049;28;20130;-39
2020/12/09 10:24:22;;;;;;;3.28;2.70;;;15.60;70.30;;;;;;4213332;28;20127;-39
2020/12/09 10:26:44;;;;;;;0.95;0.95;;;15.60;70.50;;;;;;4205888;28;20418;-39
2020/12/09 10:29:08;;;;;;;0.65;0.65;;;15.70;70.60;;;;;;4214240;28;20060;-39
2020/12/09 10:31:33;;;;;;;1.00;1.00;;;15.60;70.90;;;;;;4213940;28;20150;-40
2020/12/09 10:33:56;;;;;;;6.38;2.00;;;15.60;71.40;;;;;;4213913;28;20114;-39
2020/12/09 10:36:22;;;;;;;0.90;0.90;;;15.60;71.90;;;;;;4213531;28;20063;-39
2020/12/09 10:38:43;;;;;;;1.40;1.40;;;15.50;72.50;;;;;;4214138;28;20079;-39
2020/12/09 10:41:08;;;;;;;0.93;0.93;;;15.40;73.10;;;;;;4213657;28;20519;-39
2020/12/09 10:43:29;;;;;;;1.95;1.95;;;15.40;73.60;;;;;;4213018;28;20060;-41
2020/12/09 10:45:55;;;;;;;1.65;1.65;;;15.30;73.90;;;;;;4212840;28;20109;-39
2020/12/09 10:48:17;;;;;;;0.57;0.57;;;15.20;74.30;;;;;;4212518;28;20528;-39
2020/12/09 10:50:38;;;;;;;0.95;0.95;;;15.20;74.40;;;;;;4213329;28;20512;-39
2020/12/09 10:53:00;;;;;;;;;;;15.30;73.90;;;;;;4212998;28;20097;-39
2020/12/09 10:55:23;;;;;;;3.00;2.15;;;15.40;73.70;;;;;;4213398;28;19928;-40
2020/12/09 10:57:44;;;;;;;2.03;1.90;;;15.40;73.50;;;;;;4213559;28;20089;-40
2020/12/09 11:00:06;;;;;;;1.73;1.58;;;15.40;73.50;;;;;;4212575;28;20052;-40
2020/12/09 11:02:27;;;;;;;0.25;0.25;;;15.40;73.40;;;;;;4213587;28;20075;-40
2020/12/09 11:04:48;;;;;;;0.35;0.35;;;15.30;73.70;;;;;;4214151;28;20052;-39
2020/12/09 11:07:10;;;;;;;0.00;0.00;;;15.20;74.00;;;;;;4212319;28;20071;-38
2020/12/09 11:09:31;;;;;;;0.50;0.50;;;15.20;74.30;;;;;;4213387;28;20044;-38
2020/12/09 11:11:54;;;;;;;1.77;1.73;;;15.20;74.30;;;;;;4212849;28;20113;-39
2020/12/09 11:14:17;;;;;;;3.33;1.55;;;15.10;74.30;;;;;;4213042;28;20457;-38
2020/12/09 11:16:38;;;;;;;0.93;0.50;;;15.10;74.40;;;;;;4213225;28;20047;-38
2020/12/09 11:18:58;;;;;;;18.08;2.42;;;15.10;74.40;;;;;;4213579;28;20462;-39
2020/12/09 11:21:21;;;;;;;0.73;0.73;;;15.10;74.60;;;;;;4213355;28;20052;-39
2020/12/09 11:23:42;;;;;;;3.42;2.38;;;15.00;74.80;;;;;;4212977;28;20060;-39
2020/12/09 11:26:06;;;;;;;;;;;14.90;74.90;;;;;;4213175;28;20105;-39
2020/12/09 11:28:27;;;;;;;2.47;2.38;;;14.90;76.00;;;;;;4212558;28;19931;-38
2020/12/09 11:30:50;;;;;;;9.10;1.15;;;14.80;75.30;;;;;;4207656;28;20048;-39
2020/12/09 11:33:11;;;;;;;3.17;2.95;;;14.80;75.30;;;;;;4212619;28;20124;-39
2020/12/09 11:35:32;;;;;;;0.98;0.98;;;14.70;75.40;;;;;;4212158;28;20075;-39
2020/12/09 11:37:54;;;;;;;0.13;0.13;;;14.70;75.40;;;;;;4212903;28;20132;-38
2020/12/09 11:40:23;;;;;;;0.65;0.65;;;14.70;75.60;;;;;;4212741;28;20060;-39
2020/12/09 11:42:44;;;;;;;3.40;1.50;;;14.60;75.80;;;;;;4212833;28;20060;-38
2020/12/09 11:45:06;;;;;;;1.08;1.08;;;14.60;75.90;;;;;;4212876;28;20121;-39
2020/12/09 11:47:28;;;;;;;2.80;2.60;;;14.50;76.00;;;;;;4213313;28;20490;-38
2020/12/09 11:49:49;;;;;;;4.32;1.75;;;14.50;76.30;;;;;;4212895;28;20502;-39
2020/12/09 11:52:09;;;;;;;1.55;1.05;;;14.40;76.40;;;;;;4212543;28;20059;-39
2020/12/09 11:54:31;;;;;;;0.40;0.40;;;14.40;76.60;;;;;;4213602;28;20048;-39
2020/12/09 11:56:59;;;;;;;1.40;1.40;;;14.30;76.60;;;;;;4212124;28;20056;-39
2020/12/09 11:59:19;;;;;;;1.58;1.48;;;14.30;76.70;;;;;;4213162;28;20048;-39
2020/12/09 12:01:41;;;;;;;0.95;0.95;;;14.30;76.90;;;;;;4213048;28;20780;-39
2020/12/09 12:04:05;;;;;;;3.85;2.65;;;14.20;76.90;;;;;;4212936;28;20064;-39
2020/12/09 12:06:27;;;;;;;0.85;0.85;;;14.20;77.10;;;;;;4212577;28;20506;-39
2020/12/09 12:08:49;;;;;;;0.08;0.08;;;14.20;77.10;;;;;;4212454;28;20048;-38
2020/12/09 12:11:14;;;;;;;0.88;0.68;;;14.20;77.20;;;;;;4212861;28;20055;-38
2020/12/09 12:13:37;;;;;;;3.83;1.27;;;14.10;77.20;;;;;;4212374;28;20056;-39
2020/12/09 12:15:57;;;;;;;0.50;0.50;;;14.20;77.40;;;;;;4211968;28;20063;-39
2020/12/09 12:18:18;;;;;;;0.30;0.30;;;14.30;77.10;;;;;;4212389;28;20052;-38
2020/12/09 12:20:40;;;;;;;1.25;1.23;;;14.50;76.30;;;;;;4211903;28;20079;-38
2020/12/09 12:23:01;;;;;;;2.15;2.13;;;14.60;75.90;;;;;;4209289;28;20075;-38
2020/12/09 12:25:22;;;;;;;6.63;1.20;;;14.70;75.40;;;;;;4205353;28;20058;-38
2020/12/09 12:27:44;;;;;;;1.55;1.45;;;14.80;75.00;;;;;;4212159;28;20078;-38